Newtown, North Dakota
Current Conditions -  °F | °C
As of 4:55 PM on Sunday 21 Dec 2014 (Local Time) from K08D Reporting Station
Overcast Overcast  
Wind Chill: 26°   Ceiling: 9500
Heat Index: 32°   Visibility: 10mi
Dew Point: 32°   Wind: 6mph
Humidity: 100%   Direction: 160°SSE
Pressure: 29.36"   Gusts: NA
Location:  47.9603°N, 102.491°W
Report Text: K08D 212255Z AUTO 16005KT 10SM FEW070 OVC095 00/00 A2936 RMK AO2
Loading
Personal Weather Stations






























Interactive Weather Map New forecast layout! Learn more

10-Day Weather Forecast

Advertisements
Track Severe Weather on mobile